createdAt,value
2024-03-27T00:00:27.386Z,983.31
2024-03-27T00:01:27.338Z,983.33
2024-03-27T00:02:27.323Z,983.30
2024-03-27T00:03:27.331Z,983.31
2024-03-27T00:04:27.322Z,983.32
2024-03-27T00:05:27.310Z,983.27
2024-03-27T00:06:27.307Z,983.30
2024-03-27T00:07:27.272Z,983.31
2024-03-27T00:08:27.281Z,983.36
2024-03-27T00:09:27.321Z,983.33
2024-03-27T00:10:29.695Z,983.37
2024-03-27T00:11:27.224Z,983.32
2024-03-27T00:12:27.221Z,983.34
2024-03-27T00:13:27.206Z,983.31
2024-03-27T00:14:27.195Z,983.26
2024-03-27T00:15:27.163Z,983.29
2024-03-27T00:16:27.143Z,983.26
2024-03-27T00:17:27.123Z,983.21
2024-03-27T00:18:27.124Z,983.16
2024-03-27T00:19:27.088Z,983.15
2024-03-27T00:20:27.096Z,983.18
2024-03-27T00:21:29.157Z,983.16
2024-03-27T00:22:27.091Z,983.13
2024-03-27T00:23:27.060Z,983.11
2024-03-27T00:24:27.033Z,983.13
2024-03-27T00:25:27.024Z,983.17
2024-03-27T00:26:27.001Z,983.15
2024-03-27T00:27:27.076Z,983.10
2024-03-27T00:28:27.007Z,983.11
2024-03-27T00:29:26.962Z,983.09
2024-03-27T00:30:26.984Z,983.07
2024-03-27T00:31:26.930Z,983.08
2024-03-27T00:32:27.101Z,983.10
2024-03-27T00:33:26.933Z,983.11
2024-03-27T00:34:26.893Z,983.01
2024-03-27T00:35:26.889Z,983.06
2024-03-27T00:36:26.903Z,983.00
2024-03-27T00:37:26.992Z,983.02
2024-03-27T00:38:26.844Z,983.05
2024-03-27T00:39:26.862Z,983.02
2024-03-27T00:40:26.814Z,982.98
2024-03-27T00:41:26.874Z,983.03
2024-03-27T00:42:26.792Z,982.96
2024-03-27T00:43:26.770Z,982.99
2024-03-27T00:44:26.781Z,982.98
2024-03-27T00:45:26.755Z,983.01
2024-03-27T00:46:26.764Z,983.01
2024-03-27T00:47:26.712Z,983.00
2024-03-27T00:48:26.710Z,983.00
2024-03-27T00:49:26.685Z,983.01
2024-03-27T00:50:26.708Z,983.05
2024-03-27T00:51:26.704Z,983.03
2024-03-27T00:52:26.658Z,983.02
2024-03-27T00:53:26.637Z,983.06
2024-03-27T00:54:26.668Z,983.01
2024-03-27T00:55:26.626Z,983.08
2024-03-27T00:56:26.623Z,983.01
2024-03-27T00:57:26.650Z,982.99
2024-03-27T00:58:26.579Z,982.98
2024-03-27T00:59:26.611Z,982.95
2024-03-27T01:00:26.627Z,982.96
2024-03-27T01:01:26.555Z,982.90
2024-03-27T01:02:26.530Z,982.92
2024-03-27T01:03:26.539Z,982.88
2024-03-27T01:04:26.543Z,982.86
2024-03-27T01:05:26.504Z,982.84
2024-03-27T01:06:26.508Z,982.87
2024-03-27T01:07:26.489Z,982.86
2024-03-27T01:08:26.439Z,982.87
2024-03-27T01:09:26.460Z,982.85
2024-03-27T01:10:26.421Z,982.89
2024-03-27T01:11:26.406Z,982.86
2024-03-27T01:12:26.392Z,982.85
2024-03-27T01:13:26.371Z,982.85
2024-03-27T01:14:26.388Z,982.83
2024-03-27T01:15:26.362Z,982.83
2024-03-27T01:16:26.342Z,982.83
2024-03-27T01:17:26.321Z,982.80
2024-03-27T01:18:26.331Z,982.82
2024-03-27T01:19:26.324Z,982.77
2024-03-27T01:20:26.288Z,982.81
2024-03-27T01:21:26.284Z,982.82
2024-03-27T01:22:26.263Z,982.81
2024-03-27T01:23:26.273Z,982.80
2024-03-27T01:24:26.260Z,982.81
2024-03-27T01:25:26.239Z,982.81
2024-03-27T01:26:26.204Z,982.77
2024-03-27T01:27:26.194Z,982.73
2024-03-27T01:28:26.240Z,982.72
2024-03-27T01:29:26.167Z,982.70
2024-03-27T01:30:26.174Z,982.70
2024-03-27T01:31:26.166Z,982.68
2024-03-27T01:32:26.161Z,982.72
2024-03-27T01:33:26.195Z,982.70
2024-03-27T01:34:26.090Z,982.69
2024-03-27T01:35:26.073Z,982.71
2024-03-27T01:36:26.096Z,982.75
2024-03-27T01:37:26.103Z,982.74
2024-03-27T01:38:26.042Z,982.75
2024-03-27T01:39:26.092Z,982.71
2024-03-27T01:40:26.012Z,982.73
2024-03-27T01:41:26.027Z,982.72
2024-03-27T01:42:26.039Z,982.68
2024-03-27T01:43:25.979Z,982.68
2024-03-27T01:44:25.949Z,982.65
2024-03-27T01:45:25.983Z,982.65
2024-03-27T01:46:25.972Z,982.65
2024-03-27T01:47:25.955Z,982.61
2024-03-27T01:48:25.932Z,982.59
2024-03-27T01:49:25.906Z,982.57
2024-03-27T01:50:25.929Z,982.60
2024-03-27T01:51:25.885Z,982.57
2024-03-27T01:52:25.866Z,982.59
2024-03-27T01:53:25.853Z,982.55
2024-03-27T01:54:25.840Z,982.51
2024-03-27T01:55:25.821Z,982.53
2024-03-27T01:56:25.804Z,982.50
2024-03-27T01:57:25.785Z,982.49
2024-03-27T01:58:25.774Z,982.44
2024-03-27T01:59:25.767Z,982.49
2024-03-27T02:00:25.763Z,982.48
2024-03-27T02:01:25.773Z,982.46
2024-03-27T02:02:25.719Z,982.41
2024-03-27T02:03:25.714Z,982.45
2024-03-27T02:04:25.684Z,982.40
2024-03-27T02:05:25.722Z,982.38
2024-03-27T02:06:25.664Z,982.42
2024-03-27T02:07:25.670Z,982.39
2024-03-27T02:08:25.637Z,982.38
2024-03-27T02:09:25.631Z,982.38
2024-03-27T02:10:25.628Z,982.40
2024-03-27T02:11:25.633Z,982.39
2024-03-27T02:12:25.609Z,982.43
2024-03-27T02:13:25.578Z,982.40
2024-03-27T02:14:25.616Z,982.45
2024-03-27T02:15:25.584Z,982.42
2024-03-27T02:16:25.525Z,982.41
2024-03-27T02:17:25.553Z,982.37
2024-03-27T02:18:25.505Z,982.33
2024-03-27T02:19:25.546Z,982.31
2024-03-27T02:20:25.477Z,982.33
2024-03-27T02:21:25.482Z,982.29
2024-03-27T02:22:25.449Z,982.33
2024-03-27T02:23:25.455Z,982.28
2024-03-27T02:24:25.439Z,982.26
2024-03-27T02:25:25.465Z,982.28
2024-03-27T02:26:25.424Z,982.27
2024-03-27T02:27:25.395Z,982.30
2024-03-27T02:28:25.393Z,982.32
2024-03-27T02:29:25.378Z,982.33
2024-03-27T02:30:25.362Z,982.34
2024-03-27T02:31:25.348Z,982.34
2024-03-27T02:32:25.334Z,982.34
2024-03-27T02:33:25.346Z,982.33
2024-03-27T02:34:25.292Z,982.31
2024-03-27T02:35:25.281Z,982.28
2024-03-27T02:36:25.312Z,982.24
2024-03-27T02:37:25.297Z,982.22
2024-03-27T02:38:25.253Z,982.26
2024-03-27T02:39:25.248Z,982.23
2024-03-27T02:40:25.236Z,982.19
2024-03-27T02:41:25.216Z,982.16
2024-03-27T02:42:25.194Z,982.25
2024-03-27T02:43:25.172Z,982.26
2024-03-27T02:44:25.161Z,982.28
2024-03-27T02:45:25.163Z,982.26
2024-03-27T02:46:25.145Z,982.27
2024-03-27T02:47:25.156Z,982.29
2024-03-27T02:48:25.119Z,982.24
2024-03-27T02:49:25.095Z,982.20
2024-03-27T02:50:25.077Z,982.18
2024-03-27T02:51:25.117Z,982.22
2024-03-27T02:52:25.072Z,982.25
2024-03-27T02:53:25.042Z,982.21
2024-03-27T02:54:25.045Z,982.22
2024-03-27T02:55:25.032Z,982.21
2024-03-27T02:56:25.026Z,982.19
2024-03-27T02:57:24.981Z,982.22
2024-03-27T02:58:24.975Z,982.24
2024-03-27T02:59:24.968Z,982.21
2024-03-27T03:00:24.960Z,982.22
2024-03-27T03:01:24.953Z,982.22
2024-03-27T03:02:24.914Z,982.19
2024-03-27T03:03:24.906Z,982.23
2024-03-27T03:04:24.879Z,982.20
2024-03-27T03:05:24.896Z,982.21
2024-03-27T03:06:24.870Z,982.21
2024-03-27T03:07:24.842Z,982.17
2024-03-27T03:08:24.871Z,982.22
2024-03-27T03:09:24.830Z,982.17
2024-03-27T03:10:24.838Z,982.14
2024-03-27T03:11:24.809Z,982.16
2024-03-27T03:12:24.772Z,982.11
2024-03-27T03:13:24.778Z,982.10
2024-03-27T03:14:24.750Z,982.16
2024-03-27T03:15:24.753Z,982.15
2024-03-27T03:16:24.735Z,982.17
2024-03-27T03:17:24.767Z,982.16
2024-03-27T03:18:24.697Z,982.09
2024-03-27T03:19:24.692Z,982.16
2024-03-27T03:20:24.683Z,982.18
2024-03-27T03:21:24.684Z,982.20
2024-03-27T03:22:24.671Z,982.21
2024-03-27T03:23:24.629Z,982.20
2024-03-27T03:24:24.632Z,982.18
2024-03-27T03:25:24.664Z,982.23
2024-03-27T03:26:24.766Z,982.16
2024-03-27T03:27:24.615Z,982.15
2024-03-27T03:28:24.592Z,982.08
2024-03-27T03:29:24.577Z,982.06
2024-03-27T03:30:24.528Z,981.99
2024-03-27T03:31:24.559Z,981.99
2024-03-27T03:32:24.555Z,981.94
2024-03-27T03:33:24.514Z,981.93
2024-03-27T03:34:24.495Z,981.98
2024-03-27T03:35:24.493Z,981.92
2024-03-27T03:36:24.474Z,981.98
2024-03-27T03:37:24.479Z,981.99
2024-03-27T03:38:24.473Z,981.99
2024-03-27T03:39:24.435Z,982.01
2024-03-27T03:40:24.425Z,981.97
2024-03-27T03:41:24.414Z,981.94
2024-03-27T03:42:24.371Z,981.93
2024-03-27T03:43:24.378Z,981.88
2024-03-27T03:44:24.353Z,981.88
2024-03-27T03:45:24.340Z,981.91
2024-03-27T03:46:24.327Z,981.89
2024-03-27T03:47:24.327Z,981.85
2024-03-27T03:48:24.309Z,981.91
2024-03-27T03:49:24.306Z,981.94
2024-03-27T03:50:24.267Z,981.93
2024-03-27T03:51:24.267Z,981.87
2024-03-27T03:52:24.248Z,981.86
2024-03-27T03:53:24.236Z,981.83
2024-03-27T03:54:24.222Z,981.87
2024-03-27T03:55:24.219Z,981.84
2024-03-27T03:56:24.187Z,981.85
2024-03-27T03:57:24.229Z,981.91
2024-03-27T03:58:24.174Z,981.92
2024-03-27T03:59:24.150Z,981.91
2024-03-27T04:00:24.133Z,981.94
2024-03-27T04:01:24.145Z,981.96
2024-03-27T04:02:24.115Z,981.99
2024-03-27T04:03:24.121Z,982.00
2024-03-27T04:04:24.104Z,981.97
2024-03-27T04:05:24.074Z,982.01
2024-03-27T04:06:24.082Z,981.99
2024-03-27T04:07:24.048Z,981.99
2024-03-27T04:08:24.048Z,982.00
2024-03-27T04:09:24.013Z,981.96
2024-03-27T04:10:24.016Z,981.94
2024-03-27T04:11:24.035Z,981.94
2024-03-27T04:12:23.964Z,981.92
2024-03-27T04:13:23.967Z,981.95
2024-03-27T04:14:23.953Z,981.98
2024-03-27T04:15:23.969Z,981.94
2024-03-27T04:16:23.950Z,981.87
2024-03-27T04:17:23.914Z,981.81
2024-03-27T04:18:23.902Z,981.81
2024-03-27T04:19:23.877Z,981.80
2024-03-27T04:20:23.928Z,981.76
2024-03-27T04:21:23.861Z,981.73
2024-03-27T04:22:23.858Z,981.70
2024-03-27T04:23:23.842Z,981.70
2024-03-27T04:24:23.813Z,981.69
2024-03-27T04:25:23.818Z,981.63
2024-03-27T04:26:23.776Z,981.65
2024-03-27T04:27:23.791Z,981.64
2024-03-27T04:28:23.754Z,981.65
2024-03-27T04:29:23.823Z,981.66
2024-03-27T04:30:23.762Z,981.63
2024-03-27T04:31:23.744Z,981.61
2024-03-27T04:32:23.700Z,981.60
2024-03-27T04:33:23.687Z,981.58
2024-03-27T04:34:23.697Z,981.57
2024-03-27T04:35:23.663Z,981.55
2024-03-27T04:36:23.647Z,981.58
2024-03-27T04:37:23.669Z,981.55
2024-03-27T04:38:23.637Z,981.56
2024-03-27T04:39:23.630Z,981.59
2024-03-27T04:40:23.610Z,981.59
2024-03-27T04:41:23.602Z,981.63
2024-03-27T04:42:23.567Z,981.64
2024-03-27T04:43:23.581Z,981.65
2024-03-27T04:44:23.697Z,981.67
2024-03-27T04:45:23.549Z,981.71
2024-03-27T04:46:23.521Z,981.72
2024-03-27T04:47:23.518Z,981.71
2024-03-27T04:48:23.500Z,981.69
2024-03-27T04:49:23.483Z,981.68
2024-03-27T04:50:23.467Z,981.72
2024-03-27T04:51:23.475Z,981.82
2024-03-27T04:52:23.453Z,981.89
2024-03-27T04:53:23.440Z,981.93
2024-03-27T04:54:25.778Z,981.97
2024-03-27T04:55:23.566Z,981.99
2024-03-27T04:56:23.403Z,982.03
2024-03-27T04:57:23.377Z,982.01
2024-03-27T04:58:23.368Z,982.09
2024-03-27T04:59:23.358Z,982.13
2024-03-27T05:00:23.316Z,982.11
2024-03-27T05:01:23.352Z,982.17
2024-03-27T05:02:23.364Z,982.26
2024-03-27T05:03:23.294Z,982.20
2024-03-27T05:04:23.267Z,982.28
2024-03-27T05:05:23.320Z,982.34
2024-03-27T05:06:26.023Z,982.36
2024-03-27T05:07:23.248Z,982.38
2024-03-27T05:08:23.211Z,982.39
2024-03-27T05:09:23.199Z,982.40
2024-03-27T05:10:23.198Z,982.43
2024-03-27T05:11:23.271Z,982.43
2024-03-27T05:12:23.149Z,982.40
2024-03-27T05:13:23.161Z,982.44
2024-03-27T05:14:23.134Z,982.44
2024-03-27T05:15:23.165Z,982.46
2024-03-27T05:16:23.124Z,982.47
2024-03-27T05:17:25.182Z,982.48
2024-03-27T05:18:23.076Z,982.51
2024-03-27T05:19:23.070Z,982.51
2024-03-27T05:20:23.055Z,982.47
2024-03-27T05:21:23.053Z,982.43
2024-03-27T05:22:23.027Z,982.43
2024-03-27T05:23:23.013Z,982.40
2024-03-27T05:24:22.990Z,982.40
2024-03-27T05:25:23.018Z,982.30
2024-03-27T05:26:22.963Z,982.25
2024-03-27T05:27:22.982Z,982.21
2024-03-27T05:28:22.940Z,982.21
2024-03-27T05:29:22.962Z,982.23
2024-03-27T05:30:22.954Z,982.25
2024-03-27T05:31:22.903Z,982.26
2024-03-27T05:32:22.912Z,982.23
2024-03-27T05:33:22.894Z,982.27
2024-03-27T05:34:22.878Z,982.20
2024-03-27T05:35:22.906Z,982.20
2024-03-27T05:36:22.834Z,982.20
2024-03-27T05:37:22.846Z,982.14
2024-03-27T05:38:22.835Z,982.17
2024-03-27T05:39:22.853Z,982.17
2024-03-27T05:40:22.819Z,982.16
2024-03-27T05:41:22.775Z,982.18
2024-03-27T05:42:22.753Z,982.18
2024-03-27T05:43:22.744Z,982.23
2024-03-27T05:44:22.750Z,982.26
2024-03-27T05:45:22.736Z,982.28
2024-03-27T05:46:22.704Z,982.34
2024-03-27T05:47:22.684Z,982.39
2024-03-27T05:48:22.694Z,982.41
2024-03-27T05:49:22.665Z,982.41
2024-03-27T05:50:22.658Z,982.42
2024-03-27T05:51:22.670Z,982.45
2024-03-27T05:52:22.626Z,982.49
2024-03-27T05:53:22.660Z,982.49
2024-03-27T05:54:22.616Z,982.48
2024-03-27T05:55:22.568Z,982.56
2024-03-27T05:56:22.566Z,982.59
2024-03-27T05:57:22.580Z,982.63
2024-03-27T05:58:22.581Z,982.63
2024-03-27T05:59:22.527Z,982.62
2024-03-27T06:00:22.526Z,982.62
2024-03-27T06:01:22.494Z,982.62
2024-03-27T06:02:22.510Z,982.63
2024-03-27T06:03:22.500Z,982.64
2024-03-27T06:04:22.458Z,982.64
2024-03-27T06:05:22.493Z,982.69
2024-03-27T06:06:22.449Z,982.69
2024-03-27T06:07:22.438Z,982.70
2024-03-27T06:08:22.550Z,982.74
2024-03-27T06:09:22.396Z,982.72
2024-03-27T06:10:22.381Z,982.72
2024-03-27T06:11:22.385Z,982.71
2024-03-27T06:12:22.355Z,982.67
2024-03-27T06:13:22.360Z,982.63
2024-03-27T06:14:22.351Z,982.65
2024-03-27T06:15:22.321Z,982.61
2024-03-27T06:16:22.301Z,982.64
2024-03-27T06:17:22.295Z,982.65
2024-03-27T06:18:22.280Z,982.66
2024-03-27T06:19:22.287Z,982.59
2024-03-27T06:20:22.242Z,982.60
2024-03-27T06:21:22.892Z,982.56
2024-03-27T06:22:22.253Z,982.60
2024-03-27T06:23:22.247Z,982.59
2024-03-27T06:24:22.187Z,982.64
2024-03-27T06:25:22.183Z,982.67
2024-03-27T06:26:22.191Z,982.68
2024-03-27T06:27:22.200Z,982.70
2024-03-27T06:28:22.189Z,982.69
2024-03-27T06:29:22.156Z,982.70
2024-03-27T06:30:22.141Z,982.66
2024-03-27T06:31:22.180Z,982.73
2024-03-27T06:32:22.125Z,982.76
2024-03-27T06:33:22.070Z,982.74
2024-03-27T06:34:22.066Z,982.76
2024-03-27T06:35:22.039Z,982.81
2024-03-27T06:36:22.082Z,982.84
2024-03-27T06:37:22.030Z,982.89
2024-03-27T06:38:22.649Z,982.85
2024-03-27T06:39:22.032Z,982.79
2024-03-27T06:40:21.999Z,982.77
2024-03-27T06:41:21.981Z,982.76
2024-03-27T06:42:21.967Z,982.78
2024-03-27T06:43:21.939Z,982.78
2024-03-27T06:44:21.938Z,982.82
2024-03-27T06:45:23.805Z,982.81
2024-03-27T06:46:21.921Z,982.83
2024-03-27T06:47:21.898Z,982.84
2024-03-27T06:48:21.864Z,982.87
2024-03-27T06:49:21.870Z,982.97
2024-03-27T06:50:21.858Z,982.95
2024-03-27T06:51:21.822Z,982.97
2024-03-27T06:52:21.821Z,982.91
2024-03-27T06:53:21.801Z,982.94
2024-03-27T06:54:21.835Z,982.97
2024-03-27T06:55:21.792Z,983.01
2024-03-27T06:56:21.792Z,983.06
2024-03-27T06:57:21.765Z,983.10
2024-03-27T06:58:21.735Z,983.09
2024-03-27T06:59:21.742Z,983.05
2024-03-27T07:00:21.707Z,983.04
2024-03-27T07:01:24.963Z,983.08
2024-03-27T07:02:21.704Z,983.08
2024-03-27T07:03:21.672Z,983.06
2024-03-27T07:04:21.716Z,983.11
2024-03-27T07:05:21.659Z,983.15
2024-03-27T07:06:21.646Z,983.28
2024-03-27T07:07:23.201Z,983.30
2024-03-27T07:08:21.631Z,983.30
2024-03-27T07:09:21.604Z,983.31
2024-03-27T07:10:21.581Z,983.32
2024-03-27T07:11:21.572Z,983.31
2024-03-27T07:12:21.668Z,983.32
2024-03-27T07:13:21.558Z,983.28
2024-03-27T07:14:21.561Z,983.26
2024-03-27T07:15:21.510Z,983.29
2024-03-27T07:16:21.491Z,983.27
2024-03-27T07:17:21.520Z,983.23
2024-03-27T07:18:21.488Z,983.23
2024-03-27T07:19:21.473Z,983.30
2024-03-27T07:20:21.451Z,983.33
2024-03-27T07:21:21.416Z,983.38
2024-03-27T07:22:21.468Z,983.34
2024-03-27T07:23:21.404Z,983.36
2024-03-27T07:24:21.416Z,983.33
2024-03-27T07:25:22.879Z,983.39
2024-03-27T07:26:21.369Z,983.46
2024-03-27T07:27:21.358Z,983.38
2024-03-27T07:28:21.356Z,983.37
2024-03-27T07:29:21.340Z,983.36
2024-03-27T07:30:21.322Z,983.38
2024-03-27T07:31:21.324Z,983.43
2024-03-27T07:32:21.296Z,983.41
2024-03-27T07:33:21.277Z,983.36
2024-03-27T07:34:21.268Z,983.33
2024-03-27T07:35:21.252Z,983.32
2024-03-27T07:36:21.264Z,983.43
2024-03-27T07:37:21.211Z,983.39
2024-03-27T07:38:21.202Z,983.42
2024-03-27T07:39:21.203Z,983.41
2024-03-27T07:40:21.172Z,983.40
2024-03-27T07:41:21.188Z,983.43
2024-03-27T07:42:21.141Z,983.41
2024-03-27T07:43:21.129Z,983.43
2024-03-27T07:44:21.124Z,983.37
2024-03-27T07:45:21.110Z,983.39
2024-03-27T07:46:21.120Z,983.33
2024-03-27T07:47:21.093Z,983.32
2024-03-27T07:48:21.109Z,983.31
2024-03-27T07:49:21.060Z,983.30
2024-03-27T07:50:21.055Z,983.31
2024-03-27T07:51:21.031Z,983.27
2024-03-27T07:52:21.015Z,983.32
2024-03-27T07:53:21.011Z,983.28
2024-03-27T07:54:20.999Z,983.25
2024-03-27T07:55:21.017Z,983.19
2024-03-27T07:56:20.961Z,983.18
2024-03-27T07:57:20.941Z,983.25
2024-03-27T07:58:20.928Z,983.20
2024-03-27T07:59:20.944Z,983.26
2024-03-27T08:00:20.951Z,983.27
2024-03-27T08:01:20.892Z,983.27
2024-03-27T08:02:20.877Z,983.32
2024-03-27T08:03:20.853Z,983.37
2024-03-27T08:04:20.900Z,983.38
2024-03-27T08:05:20.900Z,983.44
2024-03-27T08:06:20.830Z,983.42
2024-03-27T08:07:20.821Z,983.43
2024-03-27T08:08:20.805Z,983.39
2024-03-27T08:09:20.803Z,983.33
2024-03-27T08:10:20.780Z,983.25
2024-03-27T08:11:20.775Z,983.28
2024-03-27T08:12:20.773Z,983.29
2024-03-27T08:13:20.725Z,983.33
2024-03-27T08:14:20.730Z,983.35
2024-03-27T08:15:20.698Z,983.35
2024-03-27T08:16:20.690Z,983.42
2024-03-27T08:17:20.676Z,983.43
2024-03-27T08:18:20.695Z,983.48
2024-03-27T08:19:20.662Z,983.49
2024-03-27T08:20:20.671Z,983.47
2024-03-27T08:21:20.628Z,983.48
2024-03-27T08:22:20.637Z,983.51
2024-03-27T08:23:20.609Z,983.47
2024-03-27T08:24:20.584Z,983.43
2024-03-27T08:25:20.567Z,983.43
2024-03-27T08:26:20.569Z,983.45
2024-03-27T08:27:20.558Z,983.44
2024-03-27T08:28:20.548Z,983.44
2024-03-27T08:29:20.529Z,983.45
2024-03-27T08:30:20.516Z,983.47
2024-03-27T08:31:20.496Z,983.52
2024-03-27T08:32:20.507Z,983.55
2024-03-27T08:33:20.483Z,983.57
2024-03-27T08:34:26.496Z,983.59
2024-03-27T08:35:21.442Z,983.57
2024-03-27T08:36:30.461Z,983.53
2024-03-27T08:37:21.452Z,983.54
2024-03-27T08:38:20.398Z,983.55
2024-03-27T08:39:20.391Z,983.51
2024-03-27T08:40:20.387Z,983.49
2024-03-27T08:41:20.367Z,983.48
2024-03-27T08:42:20.379Z,983.49
2024-03-27T08:43:20.366Z,983.53
2024-03-27T08:44:20.344Z,983.55
2024-03-27T08:45:20.298Z,983.58
2024-03-27T08:46:20.310Z,983.62
2024-03-27T08:47:20.286Z,983.60
2024-03-27T08:48:20.327Z,983.64
2024-03-27T08:49:20.267Z,983.62
2024-03-27T08:50:20.242Z,983.66
2024-03-27T08:51:20.253Z,983.64
2024-03-27T08:52:20.210Z,983.61
2024-03-27T08:53:20.203Z,983.66
2024-03-27T08:54:20.208Z,983.64
2024-03-27T08:55:20.180Z,983.66
2024-03-27T08:56:20.174Z,983.63
2024-03-27T08:57:20.173Z,983.60
2024-03-27T08:58:20.151Z,983.64
2024-03-27T08:59:20.164Z,983.65
2024-03-27T09:00:20.159Z,983.61
2024-03-27T09:01:20.102Z,983.61
2024-03-27T09:02:20.106Z,983.68
2024-03-27T09:03:20.065Z,983.69
2024-03-27T09:04:20.065Z,983.69
2024-03-27T09:05:20.075Z,983.66
2024-03-27T09:06:20.025Z,983.64
2024-03-27T09:07:20.002Z,983.70
2024-03-27T09:08:20.021Z,983.66
2024-03-27T09:09:20.015Z,983.70
2024-03-27T09:10:20.008Z,983.67
2024-03-27T09:11:19.979Z,983.66
2024-03-27T09:12:19.950Z,983.69
2024-03-27T09:13:19.934Z,983.70
2024-03-27T09:14:19.980Z,983.78
2024-03-27T09:15:19.903Z,983.68
2024-03-27T09:16:19.892Z,983.67
2024-03-27T09:17:19.896Z,983.67
2024-03-27T09:18:19.860Z,983.68
2024-03-27T09:19:19.882Z,983.68
2024-03-27T09:20:19.859Z,983.68
2024-03-27T09:21:19.839Z,983.68
2024-03-27T09:22:19.844Z,983.67
2024-03-27T09:23:19.812Z,983.67
2024-03-27T09:24:19.830Z,983.73
2024-03-27T09:25:19.812Z,983.76
2024-03-27T09:26:19.779Z,983.77
2024-03-27T09:27:19.746Z,983.79
2024-03-27T09:28:19.758Z,983.82
2024-03-27T09:29:19.719Z,983.88
2024-03-27T09:30:19.716Z,983.80
2024-03-27T09:31:19.703Z,983.91
2024-03-27T09:32:19.731Z,983.86
2024-03-27T09:33:19.687Z,983.82
2024-03-27T09:34:19.664Z,983.87
2024-03-27T09:35:19.639Z,983.83
2024-03-27T09:36:19.636Z,983.82
2024-03-27T09:37:19.610Z,983.79
2024-03-27T09:38:19.621Z,983.81
2024-03-27T09:39:19.592Z,983.88
2024-03-27T09:40:19.580Z,983.92
2024-03-27T09:41:19.562Z,983.86
2024-03-27T09:42:19.582Z,983.84
2024-03-27T09:43:19.576Z,983.84
2024-03-27T09:44:19.564Z,983.79
2024-03-27T09:45:19.507Z,983.77
2024-03-27T09:46:19.499Z,983.81
2024-03-27T09:47:19.520Z,983.79
2024-03-27T09:48:19.482Z,983.76
2024-03-27T09:49:19.455Z,983.75
2024-03-27T09:50:19.457Z,983.73
2024-03-27T09:51:19.439Z,983.72
2024-03-27T09:52:19.442Z,983.71
2024-03-27T09:53:19.403Z,983.70
2024-03-27T09:54:19.413Z,983.70
2024-03-27T09:55:19.383Z,983.72
2024-03-27T09:56:19.385Z,983.65
2024-03-27T09:57:19.387Z,983.59
2024-03-27T09:58:19.344Z,983.59
2024-03-27T09:59:19.330Z,983.57
2024-03-27T10:00:19.326Z,983.61
2024-03-27T10:01:19.355Z,983.71
2024-03-27T10:02:19.288Z,983.70
2024-03-27T10:03:19.274Z,983.65
2024-03-27T10:04:19.252Z,983.68
2024-03-27T10:05:19.271Z,983.61
2024-03-27T10:06:19.272Z,983.62
2024-03-27T10:07:19.238Z,983.58
2024-03-27T10:08:19.223Z,983.63
2024-03-27T10:09:19.205Z,983.62
2024-03-27T10:10:19.189Z,983.62
2024-03-27T10:11:19.181Z,983.71
2024-03-27T10:12:19.160Z,983.73
2024-03-27T10:13:19.151Z,983.75
2024-03-27T10:14:19.116Z,983.72
2024-03-27T10:15:19.133Z,983.73
2024-03-27T10:16:19.106Z,983.79
2024-03-27T10:17:19.097Z,983.77
2024-03-27T10:18:19.078Z,983.80
2024-03-27T10:19:19.076Z,983.80
2024-03-27T10:20:19.059Z,983.83
2024-03-27T10:21:19.044Z,983.76
2024-03-27T10:22:19.026Z,983.79
2024-03-27T10:23:19.006Z,983.80
2024-03-27T10:24:19.050Z,983.82
2024-03-27T10:25:18.998Z,983.82
2024-03-27T10:26:18.981Z,983.93
2024-03-27T10:27:18.957Z,984.00
2024-03-27T10:28:18.952Z,984.07
2024-03-27T10:29:18.991Z,984.10
2024-03-27T10:30:18.942Z,984.07
2024-03-27T10:31:18.931Z,984.13
2024-03-27T10:32:18.897Z,984.13
2024-03-27T10:33:18.895Z,984.10
2024-03-27T10:34:18.880Z,984.15
2024-03-27T10:35:18.836Z,984.19
2024-03-27T10:36:18.844Z,984.22
2024-03-27T10:37:18.828Z,984.26
2024-03-27T10:38:18.867Z,984.27
2024-03-27T10:39:18.815Z,984.38
2024-03-27T10:40:18.767Z,984.39
2024-03-27T10:41:18.773Z,984.35
2024-03-27T10:42:18.779Z,984.43
2024-03-27T10:43:18.782Z,984.44
2024-03-27T10:44:18.729Z,984.41
2024-03-27T10:45:18.719Z,984.42
2024-03-27T10:46:18.702Z,984.46
2024-03-27T10:47:18.717Z,984.49
2024-03-27T10:48:18.724Z,984.49
2024-03-27T10:49:18.677Z,984.47
2024-03-27T10:50:19.260Z,984.44
2024-03-27T10:51:19.404Z,984.45
2024-03-27T10:52:18.644Z,984.45
2024-03-27T10:53:18.613Z,984.49
2024-03-27T10:54:18.577Z,984.54
2024-03-27T10:55:18.584Z,984.54
2024-03-27T10:56:18.576Z,984.56
2024-03-27T10:57:18.572Z,984.53
2024-03-27T10:58:18.542Z,984.47
2024-03-27T10:59:18.530Z,984.48
2024-03-27T11:00:18.523Z,984.57
2024-03-27T11:01:18.499Z,984.53
2024-03-27T11:02:18.510Z,984.61
2024-03-27T11:03:18.503Z,984.61
2024-03-27T11:04:18.452Z,984.62
2024-03-27T11:05:20.099Z,984.58
2024-03-27T11:06:18.480Z,984.60
2024-03-27T11:07:18.423Z,984.63
2024-03-27T11:08:18.395Z,984.65
2024-03-27T11:09:18.379Z,984.65
2024-03-27T11:10:18.402Z,984.67
2024-03-27T11:11:18.389Z,984.68
2024-03-27T11:12:18.351Z,984.71
2024-03-27T11:13:18.330Z,984.77
2024-03-27T11:14:18.319Z,984.75
2024-03-27T11:15:18.340Z,984.72
2024-03-27T11:16:18.332Z,984.72
2024-03-27T11:17:18.282Z,984.71
2024-03-27T11:18:18.351Z,984.71
2024-03-27T11:19:18.262Z,984.75
2024-03-27T11:20:18.309Z,984.79
2024-03-27T11:21:18.266Z,984.77
2024-03-27T11:22:18.279Z,984.82
2024-03-27T11:23:18.208Z,984.79
2024-03-27T11:24:18.189Z,984.80
2024-03-27T11:25:18.241Z,984.81
2024-03-27T11:26:18.163Z,984.80
2024-03-27T11:27:18.166Z,984.82
2024-03-27T11:28:18.130Z,984.75
2024-03-27T11:29:18.152Z,984.78
2024-03-27T11:30:18.139Z,984.76
2024-03-27T11:31:18.095Z,984.79
2024-03-27T11:32:18.090Z,984.83
2024-03-27T11:33:18.063Z,984.82
2024-03-27T11:34:18.066Z,984.83
2024-03-27T11:35:18.059Z,984.83
2024-03-27T11:36:18.039Z,984.78
2024-03-27T11:37:18.014Z,984.75
2024-03-27T11:38:17.993Z,984.77
2024-03-27T11:39:18.010Z,984.72
2024-03-27T11:40:17.977Z,984.67
2024-03-27T11:41:17.965Z,984.69
2024-03-27T11:42:17.943Z,984.66
2024-03-27T11:43:17.942Z,984.67
2024-03-27T11:44:17.945Z,984.71
2024-03-27T11:45:17.898Z,984.66
2024-03-27T11:46:17.896Z,984.68
2024-03-27T11:47:17.881Z,984.69
2024-03-27T11:48:17.876Z,984.75
2024-03-27T11:49:17.878Z,984.72
2024-03-27T11:50:17.848Z,984.70
2024-03-27T11:51:17.820Z,984.71
2024-03-27T11:52:17.813Z,984.73
2024-03-27T11:53:17.848Z,984.71
2024-03-27T11:54:17.863Z,984.71
2024-03-27T11:55:22.032Z,984.76
2024-03-27T11:56:18.772Z,984.75
2024-03-27T11:57:17.737Z,984.78
2024-03-27T11:59:17.744Z,984.74
2024-03-27T12:00:17.698Z,984.79
2024-03-27T12:01:17.696Z,984.79
2024-03-27T12:02:17.692Z,984.83
2024-03-27T12:03:17.678Z,984.82
2024-03-27T12:04:17.647Z,984.83
2024-03-27T12:05:17.662Z,984.84
2024-03-27T12:06:17.630Z,984.81
2024-03-27T12:07:17.632Z,984.86
2024-03-27T12:08:17.616Z,984.82
2024-03-27T12:09:17.599Z,984.84
2024-03-27T12:10:17.593Z,984.86
2024-03-27T12:11:17.570Z,984.88
2024-03-27T12:12:17.594Z,984.89
2024-03-27T12:13:17.538Z,984.92
2024-03-27T12:14:17.530Z,984.90
2024-03-27T12:15:17.555Z,984.89
2024-03-27T12:16:17.506Z,984.88
2024-03-27T12:17:17.499Z,984.95
2024-03-27T12:18:17.483Z,984.98
2024-03-27T12:19:17.460Z,985.02
2024-03-27T12:20:17.460Z,985.04
2024-03-27T12:21:17.499Z,985.07
2024-03-27T12:22:17.454Z,985.10
2024-03-27T12:23:17.420Z,985.13
2024-03-27T12:24:17.394Z,985.13
2024-03-27T12:25:17.431Z,985.12
2024-03-27T12:26:17.376Z,985.14
2024-03-27T12:27:17.353Z,985.16
2024-03-27T12:28:17.347Z,985.18
2024-03-27T12:29:17.318Z,985.10